Vanquish — PHCU — position and weather

sailwx.info

Track history (hours):
 
Tides and Currents Weather Stations Pressure Air Temp Water Temp Dewpoint Dewpoint Depression Visibility Wind Speed Wind Dir Waves Ship Positions

Vanquish

Last reported at 2016-Aug-25 03:34 UTC. Time now 2016-Aug-25 04:26 UTC.
Position N 56°44' E 011°54'.

MMSI: 246138952.

Date/timePositionNaut miles runAvg speedWind from/ knotsBaromVisibWave heightAir tempDewpointWater temp
2016-Aug-25 03:34N 56°44' E 011°54'1313.0
2016-Aug-25 02:34N 56°31' E 011°60'1312.5
2016-Aug-25 01:32N 56°18' E 012°05'1212.8
2016-Aug-25 00:33N 56°11' E 012°23'1414.1
2016-Aug-24 23:33N 56°01' E 012°41'1313.0
2016-Aug-24 22:33N 55°48' E 012°42'1313.4
2016-Aug-24 21:34N 55°35' E 012°42'1313.1
2016-Aug-24 20:33N 55°22' E 012°41'1211.9
2016-Aug-24 19:33N 55°14' E 012°57'1313.2
2016-Aug-24 18:33N 55°06' E 013°15'1312.9
2016-Aug-24 17:33N 54°58' E 013°33'1413.6
2016-Aug-24 16:33N 54°50' E 013°52'1413.5
2016-Aug-24 15:33N 54°41' E 014°11'1412.7
2016-Aug-24 14:27N 54°39' E 014°34'1213.2
2016-Aug-24 13:33N 54°42' E 014°54'1312.9
2016-Aug-24 12:33N 54°45' E 015°16'1312.9
2016-Aug-24 11:33N 54°50' E 015°37'6212.4
2016-Aug-24 06:33N 54°55' E 017°24'2612.9
2016-Aug-24 04:33N 54°57' E 018°09'1313.0
2016-Aug-24 03:34N 54°57' E 018°31'1312.9
2016-Aug-24 02:33N 54°50' E 018°50'1212.5
2016-Aug-24 01:33N 54°38' E 018°56'1211.8
2016-Aug-24 00:33N 54°32' E 018°38'4 4.5
2016-Aug-23 23:33N 54°33' E 018°30'0 0.0
2016-Aug-23 22:32N 54°33' E 018°30'0 0.0
2016-Aug-23 21:32N 54°33' E 018°30'0 0.0
2016-Aug-23 20:32N 54°33' E 018°30'0 0.0
2016-Aug-23 19:32N 54°33' E 018°30'0 0.0
2016-Aug-23 18:32N 54°33' E 018°30'0 0.0
2016-Aug-23 17:32N 54°33' E 018°30'0 0.0
2016-Aug-23 16:32N 54°33' E 018°30'0 0.0
2016-Aug-23 15:32N 54°33' E 018°30'0 0.0
2016-Aug-23 14:34N 54°33' E 018°30'0 0.0
2016-Aug-23 13:34N 54°33' E 018°30'0 0.0
2016-Aug-23 12:34N 54°33' E 018°30'0 0.0
2016-Aug-23 11:33N 54°33' E 018°30'0 0.0
2016-Aug-23 10:33N 54°33' E 018°30'0 0.5
2016-Aug-23 09:34N 54°32' E 018°31'8 7.9
2016-Aug-23 08:34N 54°32' E 018°45'1111.4
2016-Aug-23 07:33N 54°42' E 018°56'1212.5
2016-Aug-23 06:34N 54°50' E 018°39'1312.7
2016-Aug-23 05:34N 54°55' E 018°20'1313.4
2016-Aug-23 04:33N 54°54' E 017°56'1313.4
2016-Aug-23 03:33N 54°54' E 017°33'1313.4
2016-Aug-23 02:33N 54°51' E 017°10'1413.4
2016-Aug-23 01:32N 54°48' E 016°47'5713.3
2016-Aug-22 21:16N 54°40' E 015°10'2212.9
2016-Aug-22 19:33N 54°36' E 014°32'1211.8
2016-Aug-22 18:33N 54°38' E 014°12'2612.7
2016-Aug-22 16:32N 54°54' E 013°36'1313.1
2016-Aug-22 15:34N 55°02' E 013°19'1313.2
2016-Aug-22 14:34N 55°10' E 013°01'1312.7
2016-Aug-22 13:33N 55°17' E 012°42'1110.8
2016-Aug-22 12:34N 55°27' E 012°40'1212.4
2016-Aug-22 11:34N 55°40' E 012°41'1312.7
2016-Aug-22 10:34N 55°52' E 012°39'1211.9
2016-Aug-22 09:34N 56°04' E 012°37'1212.4
2016-Aug-22 08:33N 56°12' E 012°19'2713.0
2016-Aug-22 06:29N 56°35' E 011°56'1313.7
2016-Aug-22 05:33N 56°48' E 011°50'1413.7
2016-Aug-22 04:33N 57°00' E 011°41'1313.3
2016-Aug-22 03:34N 57°13' E 011°34'1312.9
2016-Aug-22 02:33N 57°25' E 011°26'1212.4
2016-Aug-22 01:34N 57°34' E 011°10'1313.1
2016-Aug-22 00:33N 57°43' E 010°51'1212.1
2016-Aug-21 23:33N 57°45' E 010°30'41914.0
2016-Aug-20 17:33N 54°45' W 000°52'11 0.8
2016-Aug-20 03:33N 54°39' W 001°08'1211.7
2016-Aug-20 02:33N 54°46' W 000°51'31412.9
2016-Aug-19 02:11N 57°05' E 007°32'813.0
2016-Aug-19 01:33N 57°09' E 007°46'1312.8
2016-Aug-19 00:33N 57°14' E 008°07'1412.5
2016-Aug-18 23:24N 57°20' E 008°31'2312.4
2016-Aug-18 21:32N 57°30' E 009°10'4513.1
2016-Aug-18 18:06N 57°46' E 010°29'814.0
2016-Aug-18 17:30N 57°48' E 010°44'1212.5
2016-Aug-18 16:33N 57°40' E 011°02'1313.1
2016-Aug-18 15:33N 57°31' E 011°20'1312.6
2016-Aug-18 14:33N 57°21' E 011°32'1312.8
2016-Aug-18 13:32N 57°08' E 011°39'1313.2
2016-Aug-18 12:33N 56°56' E 011°47'1312.7
2016-Aug-18 11:33N 56°44' E 011°55'1212.1
2016-Aug-18 10:33N 56°32' E 011°59'1211.8
2016-Aug-18 09:31N 56°22' E 012°11'1111.8
2016-Aug-18 08:33N 56°13' E 012°24'1313.3
2016-Aug-18 07:34N 56°03' E 012°39'1312.6
2016-Aug-18 06:33N 55°51' E 012°44'1312.7
2016-Aug-18 05:34N 55°38' E 012°42'1212.4
2016-Aug-18 04:33N 55°26' E 012°41'1010.0
2016-Aug-18 03:33N 55°17' E 012°49'1211.5
2016-Aug-18 02:33N 55°10' E 013°06'2412.0
2016-Aug-18 00:33N 54°56' E 013°39'1212.3
2016-Aug-17 23:33N 54°48' E 013°56'1512.6
2016-Aug-17 22:20N 54°39' E 014°18'1012.4
2016-Aug-17 21:33N 54°39' E 014°34'1312.9
2016-Aug-17 20:33N 54°41' E 014°56'1313.1
2016-Aug-17 19:33N 54°42' E 015°19'1912.9
2016-Aug-17 18:05N 54°45' E 015°51'7212.2
2016-Aug-17 12:12N 54°56' E 017°55'812.1
2016-Aug-17 11:33N 54°56' E 018°08'1212.0
2016-Aug-17 10:33N 54°56' E 018°29'1211.8
2016-Aug-17 09:33N 54°48' E 018°45'1111.2
2016-Aug-17 08:33N 54°40' E 018°57'1111.1
2016-Aug-17 07:33N 54°32' E 018°44'8 7.9
2016-Aug-17 06:33N 54°33' E 018°31'0 0.0
2016-Aug-17 05:34N 54°33' E 018°31'0 0.0
2016-Aug-17 04:33N 54°33' E 018°31'0 0.0
2016-Aug-17 03:33N 54°33' E 018°31'0 0.0
2016-Aug-17 02:33N 54°33' E 018°31'0 0.0
2016-Aug-17 01:33N 54°33' E 018°31'0 0.0
2016-Aug-17 00:33N 54°33' E 018°31'0 0.0
2016-Aug-16 23:33N 54°33' E 018°31'0 0.0
2016-Aug-16 22:33N 54°33' E 018°31'0 0.0
2016-Aug-16 21:33N 54°33' E 018°31'0 0.0
2016-Aug-16 20:33N 54°33' E 018°31'5 4.6
2016-Aug-16 19:33N 54°32' E 018°38'5 5.1
2016-Aug-16 18:33N 54°33' E 018°47'1010.3
2016-Aug-16 17:33N 54°41' E 018°57'1010.3
2016-Aug-16 16:33N 54°50' E 018°48'1211.9
2016-Aug-16 15:33N 54°57' E 018°31'1111.2
2016-Aug-16 14:33N 54°56' E 018°12'1211.2
2016-Aug-16 13:31N 54°55' E 017°51'8412.0
2016-Aug-16 06:33N 54°41' E 015°28'3911.9
2016-Aug-16 03:17N 54°36' E 014°21'911.8
2016-Aug-16 02:33N 54°40' E 014°08'1211.8
2016-Aug-16 01:31N 54°47' E 013°51'1211.7
2016-Aug-16 00:31N 54°54' E 013°35'1212.2
2016-Aug-15 23:33N 55°02' E 013°19'1212.4
2016-Aug-15 22:33N 55°10' E 013°02'1212.2
2016-Aug-15 21:33N 55°16' E 012°45'10 9.7
2016-Aug-15 20:33N 55°25' E 012°39'1110.7
2016-Aug-15 19:33N 55°36' E 012°42'1110.9
2016-Aug-15 18:33N 55°47' E 012°41'1111.1
2016-Aug-15 17:33N 55°58' E 012°40'1010.3
2016-Aug-15 16:33N 56°07' E 012°30'1111.5
2016-Aug-15 15:33N 56°14' E 012°14'1411.5
2016-Aug-15 14:23N 56°25' E 012°00'1012.0
2016-Aug-15 13:33N 56°34' E 011°56'1211.9
2016-Aug-15 12:33N 56°46' E 011°51'1212.2
2016-Aug-15 11:33N 56°58' E 011°42'1211.8
2016-Aug-15 10:33N 57°09' E 011°36'1212.2
2016-Aug-15 09:33N 57°20' E 011°28'1212.0
2016-Aug-15 08:33N 57°31' E 011°18'1212.3
2016-Aug-15 07:33N 57°39' E 011°00'1211.9
2016-Aug-15 06:33N 57°47' E 010°44'2412.0
2016-Aug-15 04:33N 57°41' E 010°00'  
Track history (hours):
 
Tides and Currents Weather Stations Pressure Air Temp Water Temp Dewpoint Dewpoint Depression Visibility Wind Speed Wind Dir Waves Ship Positions

Vanquish

Last reported at 2016-Aug-25 03:34 UTC. Time now 2016-Aug-25 04:26 UTC.
Position N 56°44' E 011°54'.

MMSI: 246138952.

Date/timePositionNaut miles runAvg speedWind from/ knotsBaromVisibWave heightAir tempDewpointWater temp
2016-Aug-25 03:34N 56°44' E 011°54'1313.0
2016-Aug-25 02:34N 56°31' E 011°60'1312.5
2016-Aug-25 01:32N 56°18' E 012°05'1212.8
2016-Aug-25 00:33N 56°11' E 012°23'1414.1
2016-Aug-24 23:33N 56°01' E 012°41'1313.0
2016-Aug-24 22:33N 55°48' E 012°42'1313.4
2016-Aug-24 21:34N 55°35' E 012°42'1313.1
2016-Aug-24 20:33N 55°22' E 012°41'1211.9
2016-Aug-24 19:33N 55°14' E 012°57'1313.2
2016-Aug-24 18:33N 55°06' E 013°15'1312.9
2016-Aug-24 17:33N 54°58' E 013°33'1413.6
2016-Aug-24 16:33N 54°50' E 013°52'1413.5
2016-Aug-24 15:33N 54°41' E 014°11'1412.7
2016-Aug-24 14:27N 54°39' E 014°34'1213.2
2016-Aug-24 13:33N 54°42' E 014°54'1312.9
2016-Aug-24 12:33N 54°45' E 015°16'1312.9
2016-Aug-24 11:33N 54°50' E 015°37'6212.4
2016-Aug-24 06:33N 54°55' E 017°24'2612.9
2016-Aug-24 04:33N 54°57' E 018°09'1313.0
2016-Aug-24 03:34N 54°57' E 018°31'1312.9
2016-Aug-24 02:33N 54°50' E 018°50'1212.5
2016-Aug-24 01:33N 54°38' E 018°56'1211.8
2016-Aug-24 00:33N 54°32' E 018°38'4 4.5
2016-Aug-23 23:33N 54°33' E 018°30'0 0.0
2016-Aug-23 22:32N 54°33' E 018°30'0 0.0
2016-Aug-23 21:32N 54°33' E 018°30'0 0.0
2016-Aug-23 20:32N 54°33' E 018°30'0 0.0
2016-Aug-23 19:32N 54°33' E 018°30'0 0.0
2016-Aug-23 18:32N 54°33' E 018°30'0 0.0
2016-Aug-23 17:32N 54°33' E 018°30'0 0.0
2016-Aug-23 16:32N 54°33' E 018°30'0 0.0
2016-Aug-23 15:32N 54°33' E 018°30'0 0.0
2016-Aug-23 14:34N 54°33' E 018°30'0 0.0
2016-Aug-23 13:34N 54°33' E 018°30'0 0.0
2016-Aug-23 12:34N 54°33' E 018°30'0 0.0
2016-Aug-23 11:33N 54°33' E 018°30'0 0.0
2016-Aug-23 10:33N 54°33' E 018°30'0 0.5
2016-Aug-23 09:34N 54°32' E 018°31'8 7.9
2016-Aug-23 08:34N 54°32' E 018°45'1111.4
2016-Aug-23 07:33N 54°42' E 018°56'1212.5
2016-Aug-23 06:34N 54°50' E 018°39'1312.7
2016-Aug-23 05:34N 54°55' E 018°20'1313.4
2016-Aug-23 04:33N 54°54' E 017°56'1313.4
2016-Aug-23 03:33N 54°54' E 017°33'1313.4
2016-Aug-23 02:33N 54°51' E 017°10'1413.4
2016-Aug-23 01:32N 54°48' E 016°47'5713.3
2016-Aug-22 21:16N 54°40' E 015°10'2212.9
2016-Aug-22 19:33N 54°36' E 014°32'1211.8
2016-Aug-22 18:33N 54°38' E 014°12'2612.7
2016-Aug-22 16:32N 54°54' E 013°36'1313.1
2016-Aug-22 15:34N 55°02' E 013°19'1313.2
2016-Aug-22 14:34N 55°10' E 013°01'1312.7
2016-Aug-22 13:33N 55°17' E 012°42'1110.8
2016-Aug-22 12:34N 55°27' E 012°40'1212.4
2016-Aug-22 11:34N 55°40' E 012°41'1312.7
2016-Aug-22 10:34N 55°52' E 012°39'1211.9
2016-Aug-22 09:34N 56°04' E 012°37'1212.4
2016-Aug-22 08:33N 56°12' E 012°19'2713.0
2016-Aug-22 06:29N 56°35' E 011°56'1313.7
2016-Aug-22 05:33N 56°48' E 011°50'1413.7
2016-Aug-22 04:33N 57°00' E 011°41'1313.3
2016-Aug-22 03:34N 57°13' E 011°34'1312.9
2016-Aug-22 02:33N 57°25' E 011°26'1212.4
2016-Aug-22 01:34N 57°34' E 011°10'1313.1
2016-Aug-22 00:33N 57°43' E 010°51'1212.1
2016-Aug-21 23:33N 57°45' E 010°30'41914.0
2016-Aug-20 17:33N 54°45' W 000°52'11 0.8
2016-Aug-20 03:33N 54°39' W 001°08'1211.7
2016-Aug-20 02:33N 54°46' W 000°51'31412.9
2016-Aug-19 02:11N 57°05' E 007°32'813.0
2016-Aug-19 01:33N 57°09' E 007°46'1312.8
2016-Aug-19 00:33N 57°14' E 008°07'1412.5
2016-Aug-18 23:24N 57°20' E 008°31'2312.4
2016-Aug-18 21:32N 57°30' E 009°10'4513.1
2016-Aug-18 18:06N 57°46' E 010°29'814.0
2016-Aug-18 17:30N 57°48' E 010°44'1212.5
2016-Aug-18 16:33N 57°40' E 011°02'1313.1
2016-Aug-18 15:33N 57°31' E 011°20'1312.6
2016-Aug-18 14:33N 57°21' E 011°32'1312.8
2016-Aug-18 13:32N 57°08' E 011°39'1313.2
2016-Aug-18 12:33N 56°56' E 011°47'1312.7
2016-Aug-18 11:33N 56°44' E 011°55'1212.1
2016-Aug-18 10:33N 56°32' E 011°59'1211.8
2016-Aug-18 09:31N 56°22' E 012°11'1111.8
2016-Aug-18 08:33N 56°13' E 012°24'1313.3
2016-Aug-18 07:34N 56°03' E 012°39'1312.6
2016-Aug-18 06:33N 55°51' E 012°44'1312.7
2016-Aug-18 05:34N 55°38' E 012°42'1212.4
2016-Aug-18 04:33N 55°26' E 012°41'1010.0
2016-Aug-18 03:33N 55°17' E 012°49'1211.5
2016-Aug-18 02:33N 55°10' E 013°06'2412.0
2016-Aug-18 00:33N 54°56' E 013°39'1212.3
2016-Aug-17 23:33N 54°48' E 013°56'1512.6
2016-Aug-17 22:20N 54°39' E 014°18'1012.4
2016-Aug-17 21:33N 54°39' E 014°34'1312.9
2016-Aug-17 20:33N 54°41' E 014°56'1313.1
2016-Aug-17 19:33N 54°42' E 015°19'1912.9
2016-Aug-17 18:05N 54°45' E 015°51'7212.2
2016-Aug-17 12:12N 54°56' E 017°55'812.1
2016-Aug-17 11:33N 54°56' E 018°08'1212.0
2016-Aug-17 10:33N 54°56' E 018°29'1211.8
2016-Aug-17 09:33N 54°48' E 018°45'1111.2
2016-Aug-17 08:33N 54°40' E 018°57'1111.1
2016-Aug-17 07:33N 54°32' E 018°44'8 7.9
2016-Aug-17 06:33N 54°33' E 018°31'0 0.0
2016-Aug-17 05:34N 54°33' E 018°31'0 0.0
2016-Aug-17 04:33N 54°33' E 018°31'0 0.0
2016-Aug-17 03:33N 54°33' E 018°31'0 0.0
2016-Aug-17 02:33N 54°33' E 018°31'0 0.0
2016-Aug-17 01:33N 54°33' E 018°31'0 0.0
2016-Aug-17 00:33N 54°33' E 018°31'0 0.0
2016-Aug-16 23:33N 54°33' E 018°31'0 0.0
2016-Aug-16 22:33N 54°33' E 018°31'0 0.0
2016-Aug-16 21:33N 54°33' E 018°31'0 0.0
2016-Aug-16 20:33N 54°33' E 018°31'5 4.6
2016-Aug-16 19:33N 54°32' E 018°38'5 5.1
2016-Aug-16 18:33N 54°33' E 018°47'1010.3
2016-Aug-16 17:33N 54°41' E 018°57'1010.3
2016-Aug-16 16:33N 54°50' E 018°48'1211.9
2016-Aug-16 15:33N 54°57' E 018°31'1111.2
2016-Aug-16 14:33N 54°56' E 018°12'1211.2
2016-Aug-16 13:31N 54°55' E 017°51'8412.0
2016-Aug-16 06:33N 54°41' E 015°28'3911.9
2016-Aug-16 03:17N 54°36' E 014°21'911.8
2016-Aug-16 02:33N 54°40' E 014°08'1211.8
2016-Aug-16 01:31N 54°47' E 013°51'1211.7
2016-Aug-16 00:31N 54°54' E 013°35'1212.2
2016-Aug-15 23:33N 55°02' E 013°19'1212.4
2016-Aug-15 22:33N 55°10' E 013°02'1212.2
2016-Aug-15 21:33N 55°16' E 012°45'10 9.7
2016-Aug-15 20:33N 55°25' E 012°39'1110.7
2016-Aug-15 19:33N 55°36' E 012°42'1110.9
2016-Aug-15 18:33N 55°47' E 012°41'1111.1
2016-Aug-15 17:33N 55°58' E 012°40'1010.3
2016-Aug-15 16:33N 56°07' E 012°30'1111.5
2016-Aug-15 15:33N 56°14' E 012°14'1411.5
2016-Aug-15 14:23N 56°25' E 012°00'1012.0
2016-Aug-15 13:33N 56°34' E 011°56'1211.9
2016-Aug-15 12:33N 56°46' E 011°51'1212.2
2016-Aug-15 11:33N 56°58' E 011°42'1211.8
2016-Aug-15 10:33N 57°09' E 011°36'1212.2
2016-Aug-15 09:33N 57°20' E 011°28'1212.0
2016-Aug-15 08:33N 57°31' E 011°18'1212.3
2016-Aug-15 07:33N 57°39' E 011°00'1211.9
2016-Aug-15 06:33N 57°47' E 010°44'2412.0
2016-Aug-15 04:33N 57°41' E 010°00'  

Dump ship's entire track history